sensor_id;sensor_type;location;lat;lon;timestamp;temperature;humidity
1455;DHT22;721;48.168;12.818;2023-05-28T00:00:48;15.60;1.00
1455;DHT22;721;48.168;12.818;2023-05-28T00:03:16;15.50;1.00
1455;DHT22;721;48.168;12.818;2023-05-28T00:05:44;15.40;1.00
1455;DHT22;721;48.168;12.818;2023-05-28T00:08:11;15.30;1.00
1455;DHT22;721;48.168;12.818;2023-05-28T00:10:40;15.50;1.00
1455;DHT22;721;48.168;12.818;2023-05-28T00:13:07;15.50;1.00
1455;DHT22;721;48.168;12.818;2023-05-28T00:15:34;15.20;1.00
1455;DHT22;721;48.168;12.818;2023-05-28T00:18:02;15.20;1.00
1455;DHT22;721;48.168;12.818;2023-05-28T00:20:29;15.20;1.00
1455;DHT22;721;48.168;12.818;2023-05-28T00:22:56;15.10;1.00
1455;DHT22;721;48.168;12.818;2023-05-28T00:25:22;15.10;1.00
1455;DHT22;721;48.168;12.818;2023-05-28T00:27:50;15.10;1.00
1455;DHT22;721;48.168;12.818;2023-05-28T00:30:17;15.10;1.00
1455;DHT22;721;48.168;12.818;2023-05-28T00:32:44;15.20;1.00
1455;DHT22;721;48.168;12.818;2023-05-28T00:35:11;15.00;1.00
1455;DHT22;721;48.168;12.818;2023-05-28T00:37:37;15.00;1.00
1455;DHT22;721;48.168;12.818;2023-05-28T00:40:05;15.00;1.00
1455;DHT22;721;48.168;12.818;2023-05-28T00:42:33;15.00;1.00
1455;DHT22;721;48.168;12.818;2023-05-28T00:45:02;15.00;1.00
1455;DHT22;721;48.168;12.818;2023-05-28T00:47:29;14.90;1.00
1455;DHT22;721;48.168;12.818;2023-05-28T00:49:56;15.00;1.00
1455;DHT22;721;48.168;12.818;2023-05-28T00:52:26;14.90;1.00
1455;DHT22;721;48.168;12.818;2023-05-28T00:54:53;14.90;1.00
1455;DHT22;721;48.168;12.818;2023-05-28T00:57:21;14.90;1.00
1455;DHT22;721;48.168;12.818;2023-05-28T00:59:49;14.90;1.00
1455;DHT22;721;48.168;12.818;2023-05-28T01:02:18;14.80;1.00
1455;DHT22;721;48.168;12.818;2023-05-28T01:04:45;14.80;1.00
1455;DHT22;721;48.168;12.818;2023-05-28T01:07:12;14.80;1.00
1455;DHT22;721;48.168;12.818;2023-05-28T01:09:38;14.70;1.00
1455;DHT22;721;48.168;12.818;2023-05-28T01:12:06;14.80;1.00
1455;DHT22;721;48.168;12.818;2023-05-28T01:14:34;14.40;1.00
1455;DHT22;721;48.168;12.818;2023-05-28T01:17:02;14.30;1.00
1455;DHT22;721;48.168;12.818;2023-05-28T01:19:32;14.30;1.00
1455;DHT22;721;48.168;12.818;2023-05-28T01:22:02;14.30;1.00
1455;DHT22;721;48.168;12.818;2023-05-28T01:24:32;14.20;1.00
1455;DHT22;721;48.168;12.818;2023-05-28T01:26:59;14.20;1.00
1455;DHT22;721;48.168;12.818;2023-05-28T01:29:26;14.30;1.00
1455;DHT22;721;48.168;12.818;2023-05-28T01:31:53;14.30;1.00
1455;DHT22;721;48.168;12.818;2023-05-28T01:34:20;14.20;1.00
1455;DHT22;721;48.168;12.818;2023-05-28T01:36:50;14.30;1.00
1455;DHT22;721;48.168;12.818;2023-05-28T01:39:18;14.20;1.00
1455;DHT22;721;48.168;12.818;2023-05-28T01:41:48;14.10;1.00
1455;DHT22;721;48.168;12.818;2023-05-28T01:44:17;14.20;1.00
1455;DHT22;721;48.168;12.818;2023-05-28T01:46:46;14.10;1.00
1455;DHT22;721;48.168;12.818;2023-05-28T01:49:13;14.10;1.00
1455;DHT22;721;48.168;12.818;2023-05-28T01:51:40;14.20;1.00
1455;DHT22;721;48.168;12.818;2023-05-28T01:54:07;14.30;1.00
1455;DHT22;721;48.168;12.818;2023-05-28T01:56:34;14.20;1.00
1455;DHT22;721;48.168;12.818;2023-05-28T01:59:02;14.10;1.00
1455;DHT22;721;48.168;12.818;2023-05-28T02:01:29;14.10;1.00
1455;DHT22;721;48.168;12.818;2023-05-28T02:03:59;14.10;1.00
1455;DHT22;721;48.168;12.818;2023-05-28T02:06:29;14.10;1.00
1455;DHT22;721;48.168;12.818;2023-05-28T02:08:56;14.00;1.00
1455;DHT22;721;48.168;12.818;2023-05-28T02:11:23;14.00;1.00
1455;DHT22;721;48.168;12.818;2023-05-28T02:13:50;13.90;1.00
1455;DHT22;721;48.168;12.818;2023-05-28T02:16:19;14.00;1.00
1455;DHT22;721;48.168;12.818;2023-05-28T02:18:46;13.90;1.00
1455;DHT22;721;48.168;12.818;2023-05-28T02:21:16;14.00;1.00
1455;DHT22;721;48.168;12.818;2023-05-28T02:23:45;14.10;1.00
1455;DHT22;721;48.168;12.818;2023-05-28T02:26:12;14.10;1.00
1455;DHT22;721;48.168;12.818;2023-05-28T02:28:40;14.10;1.00
1455;DHT22;721;48.168;12.818;2023-05-28T02:31:08;14.10;1.00
1455;DHT22;721;48.168;12.818;2023-05-28T02:33:36;14.10;1.00
1455;DHT22;721;48.168;12.818;2023-05-28T02:36:04;14.00;1.00
1455;DHT22;721;48.168;12.818;2023-05-28T02:38:32;14.00;1.00
1455;DHT22;721;48.168;12.818;2023-05-28T02:41:00;14.00;1.00
1455;DHT22;721;48.168;12.818;2023-05-28T02:43:27;14.00;1.00
1455;DHT22;721;48.168;12.818;2023-05-28T02:45:53;13.90;1.00
1455;DHT22;721;48.168;12.818;2023-05-28T02:48:20;13.80;1.00
1455;DHT22;721;48.168;12.818;2023-05-28T02:50:48;13.80;1.00
1455;DHT22;721;48.168;12.818;2023-05-28T02:53:15;13.80;1.00
1455;DHT22;721;48.168;12.818;2023-05-28T02:55:42;13.80;1.00
1455;DHT22;721;48.168;12.818;2023-05-28T02:58:08;13.80;1.00
1455;DHT22;721;48.168;12.818;2023-05-28T03:00:35;13.70;1.00
1455;DHT22;721;48.168;12.818;2023-05-28T03:03:02;13.70;1.00
1455;DHT22;721;48.168;12.818;2023-05-28T03:05:29;13.60;1.00
1455;DHT22;721;48.168;12.818;2023-05-28T03:07:58;13.80;1.00
1455;DHT22;721;48.168;12.818;2023-05-28T03:10:24;13.60;1.00
1455;DHT22;721;48.168;12.818;2023-05-28T03:12:51;13.60;1.00
1455;DHT22;721;48.168;12.818;2023-05-28T03:15:18;13.50;1.00
1455;DHT22;721;48.168;12.818;2023-05-28T03:17:45;13.50;1.00
1455;DHT22;721;48.168;12.818;2023-05-28T03:20:11;13.50;1.00
1455;DHT22;721;48.168;12.818;2023-05-28T03:22:38;13.50;1.00
1455;DHT22;721;48.168;12.818;2023-05-28T03:25:08;13.50;1.00
1455;DHT22;721;48.168;12.818;2023-05-28T03:27:35;13.40;1.00
1455;DHT22;721;48.168;12.818;2023-05-28T03:30:02;13.40;1.00
1455;DHT22;721;48.168;12.818;2023-05-28T03:32:30;13.40;1.00
1455;DHT22;721;48.168;12.818;2023-05-28T03:34:56;13.30;1.00
1455;DHT22;721;48.168;12.818;2023-05-28T03:37:23;13.20;1.00
1455;DHT22;721;48.168;12.818;2023-05-28T03:39:52;13.10;1.00
1455;DHT22;721;48.168;12.818;2023-05-28T03:42:20;13.10;1.00
1455;DHT22;721;48.168;12.818;2023-05-28T03:44:47;13.20;1.00
1455;DHT22;721;48.168;12.818;2023-05-28T03:47:13;13.20;1.00
1455;DHT22;721;48.168;12.818;2023-05-28T03:49:40;13.10;1.00
1455;DHT22;721;48.168;12.818;2023-05-28T03:52:08;13.20;1.00
1455;DHT22;721;48.168;12.818;2023-05-28T03:54:36;13.20;1.00
1455;DHT22;721;48.168;12.818;2023-05-28T03:57:02;13.20;1.00
1455;DHT22;721;48.168;12.818;2023-05-28T03:59:30;13.20;1.00
1455;DHT22;721;48.168;12.818;2023-05-28T04:01:57;13.20;1.00
1455;DHT22;721;48.168;12.818;2023-05-28T04:04:24;13.20;1.00
1455;DHT22;721;48.168;12.818;2023-05-28T04:06:51;13.20;1.00
1455;DHT22;721;48.168;12.818;2023-05-28T04:09:17;13.20;1.00
1455;DHT22;721;48.168;12.818;2023-05-28T04:11:44;13.20;1.00
1455;DHT22;721;48.168;12.818;2023-05-28T04:14:11;13.30;1.00
1455;DHT22;721;48.168;12.818;2023-05-28T04:16:39;13.40;1.00
1455;DHT22;721;48.168;12.818;2023-05-28T04:19:06;13.30;1.00
1455;DHT22;721;48.168;12.818;2023-05-28T04:21:33;13.30;1.00
1455;DHT22;721;48.168;12.818;2023-05-28T04:24:00;13.40;1.00
1455;DHT22;721;48.168;12.818;2023-05-28T04:26:27;13.50;1.00
1455;DHT22;721;48.168;12.818;2023-05-28T04:28:53;13.60;1.00
1455;DHT22;721;48.168;12.818;2023-05-28T04:31:20;13.80;2.90
1455;DHT22;721;48.168;12.818;2023-05-28T04:33:48;13.40;2.90
1455;DHT22;721;48.168;12.818;2023-05-28T04:36:15;13.50;4.60
1455;DHT22;721;48.168;12.818;2023-05-28T04:38:42;13.50;4.90
1455;DHT22;721;48.168;12.818;2023-05-28T04:41:09;13.50;4.70
1455;DHT22;721;48.168;12.818;2023-05-28T04:43:39;13.50;5.20
1455;DHT22;721;48.168;12.818;2023-05-28T04:46:06;14.00;6.20
1455;DHT22;721;48.168;12.818;2023-05-28T04:48:34;13.60;5.30
1455;DHT22;721;48.168;12.818;2023-05-28T04:51:04;13.70;4.80
1455;DHT22;721;48.168;12.818;2023-05-28T04:53:31;13.70;4.30
1455;DHT22;721;48.168;12.818;2023-05-28T04:55:59;13.70;2.60
1455;DHT22;721;48.168;12.818;2023-05-28T04:58:26;13.70;1.00
1455;DHT22;721;48.168;12.818;2023-05-28T05:00:53;13.70;1.00
1455;DHT22;721;48.168;12.818;2023-05-28T05:03:21;13.60;1.00
1455;DHT22;721;48.168;12.818;2023-05-28T05:05:48;13.70;1.00
1455;DHT22;721;48.168;12.818;2023-05-28T05:08:16;13.80;1.00
1455;DHT22;721;48.168;12.818;2023-05-28T05:10:43;14.10;1.00
1455;DHT22;721;48.168;12.818;2023-05-28T05:13:10;13.90;1.00
1455;DHT22;721;48.168;12.818;2023-05-28T05:15:36;14.10;1.00
1455;DHT22;721;48.168;12.818;2023-05-28T05:18:03;14.10;1.00
1455;DHT22;721;48.168;12.818;2023-05-28T05:20:30;14.10;1.00
1455;DHT22;721;48.168;12.818;2023-05-28T05:22:57;14.20;1.00
1455;DHT22;721;48.168;12.818;2023-05-28T05:25:25;14.50;1.00
1455;DHT22;721;48.168;12.818;2023-05-28T05:27:52;14.30;1.00
1455;DHT22;721;48.168;12.818;2023-05-28T05:30:18;14.40;1.00
1455;DHT22;721;48.168;12.818;2023-05-28T05:32:45;14.50;1.00
1455;DHT22;721;48.168;12.818;2023-05-28T05:35:12;14.60;1.00
1455;DHT22;721;48.168;12.818;2023-05-28T05:37:40;14.90;1.00
1455;DHT22;721;48.168;12.818;2023-05-28T05:40:07;14.80;1.00
1455;DHT22;721;48.168;12.818;2023-05-28T05:42:36;14.90;1.00
1455;DHT22;721;48.168;12.818;2023-05-28T05:45:04;15.00;1.00
1455;DHT22;721;48.168;12.818;2023-05-28T05:47:31;15.10;1.00
1455;DHT22;721;48.168;12.818;2023-05-28T05:49:58;15.20;1.00
1455;DHT22;721;48.168;12.818;2023-05-28T05:52:25;15.30;1.00
1455;DHT22;721;48.168;12.818;2023-05-28T05:54:52;15.50;1.00
1455;DHT22;721;48.168;12.818;2023-05-28T05:57:18;15.50;1.00
1455;DHT22;721;48.168;12.818;2023-05-28T05:59:47;15.50;1.00
1455;DHT22;721;48.168;12.818;2023-05-28T06:02:13;15.80;1.00
1455;DHT22;721;48.168;12.818;2023-05-28T06:04:40;15.80;1.00
1455;DHT22;721;48.168;12.818;2023-05-28T06:07:07;15.80;1.00
1455;DHT22;721;48.168;12.818;2023-05-28T06:09:34;15.90;1.00
1455;DHT22;721;48.168;12.818;2023-05-28T06:12:01;16.00;1.00
1455;DHT22;721;48.168;12.818;2023-05-28T06:14:28;16.10;1.00
1455;DHT22;721;48.168;12.818;2023-05-28T06:16:56;16.10;1.00
1455;DHT22;721;48.168;12.818;2023-05-28T06:19:23;16.30;1.00
1455;DHT22;721;48.168;12.818;2023-05-28T06:21:50;16.30;1.00
1455;DHT22;721;48.168;12.818;2023-05-28T06:24:17;16.50;1.00
1455;DHT22;721;48.168;12.818;2023-05-28T06:26:44;16.50;1.00
1455;DHT22;721;48.168;12.818;2023-05-28T06:29:11;16.50;1.00
1455;DHT22;721;48.168;12.818;2023-05-28T06:31:38;16.60;1.00
1455;DHT22;721;48.168;12.818;2023-05-28T06:34:06;16.70;1.00
1455;DHT22;721;48.168;12.818;2023-05-28T06:36:34;16.80;1.00
1455;DHT22;721;48.168;12.818;2023-05-28T06:39:01;16.80;1.00
1455;DHT22;721;48.168;12.818;2023-05-28T06:41:28;16.80;1.00
1455;DHT22;721;48.168;12.818;2023-05-28T06:43:54;16.90;1.00
1455;DHT22;721;48.168;12.818;2023-05-28T06:46:21;17.00;1.00
1455;DHT22;721;48.168;12.818;2023-05-28T06:48:48;17.60;1.00
1455;DHT22;721;48.168;12.818;2023-05-28T06:51:16;17.20;1.00
1455;DHT22;721;48.168;12.818;2023-05-28T06:53:43;17.30;1.00
1455;DHT22;721;48.168;12.818;2023-05-28T06:56:09;17.30;1.00
1455;DHT22;721;48.168;12.818;2023-05-28T06:58:36;17.40;1.00
1455;DHT22;721;48.168;12.818;2023-05-28T07:01:03;17.20;1.00
1455;DHT22;721;48.168;12.818;2023-05-28T07:03:30;17.80;1.00
1455;DHT22;721;48.168;12.818;2023-05-28T07:05:57;17.90;1.00
1455;DHT22;721;48.168;12.818;2023-05-28T07:08:25;18.00;1.00
1455;DHT22;721;48.168;12.818;2023-05-28T07:10:52;18.10;1.00
1455;DHT22;721;48.168;12.818;2023-05-28T07:13:19;18.20;1.00
1455;DHT22;721;48.168;12.818;2023-05-28T07:15:45;18.30;1.00
1455;DHT22;721;48.168;12.818;2023-05-28T07:18:12;18.40;1.00
1455;DHT22;721;48.168;12.818;2023-05-28T07:20:39;18.50;1.00
1455;DHT22;721;48.168;12.818;2023-05-28T07:23:06;18.60;1.00
1455;DHT22;721;48.168;12.818;2023-05-28T07:25:34;18.80;1.00
1455;DHT22;721;48.168;12.818;2023-05-28T07:28:00;18.80;1.00
1455;DHT22;721;48.168;12.818;2023-05-28T07:30:27;18.80;1.00
1455;DHT22;721;48.168;12.818;2023-05-28T07:32:54;18.80;1.00
1455;DHT22;721;48.168;12.818;2023-05-28T07:35:21;18.70;1.00
1455;DHT22;721;48.168;12.818;2023-05-28T07:37:48;18.80;1.00
1455;DHT22;721;48.168;12.818;2023-05-28T07:40:14;19.50;1.00
1455;DHT22;721;48.168;12.818;2023-05-28T07:42:43;19.00;1.00
1455;DHT22;721;48.168;12.818;2023-05-28T07:45:10;19.10;1.00
1455;DHT22;721;48.168;12.818;2023-05-28T07:47:36;19.20;1.00
1455;DHT22;721;48.168;12.818;2023-05-28T07:50:05;19.50;1.00
1455;DHT22;721;48.168;12.818;2023-05-28T07:52:32;19.50;1.00
1455;DHT22;721;48.168;12.818;2023-05-28T07:54:58;19.50;1.00
1455;DHT22;721;48.168;12.818;2023-05-28T07:57:25;19.60;1.00
1455;DHT22;721;48.168;12.818;2023-05-28T07:59:53;19.80;1.00
1455;DHT22;721;48.168;12.818;2023-05-28T08:02:20;19.80;1.00
1455;DHT22;721;48.168;12.818;2023-05-28T08:04:48;19.90;1.00
1455;DHT22;721;48.168;12.818;2023-05-28T08:07:15;20.10;1.00
1455;DHT22;721;48.168;12.818;2023-05-28T08:09:41;20.20;1.00
1455;DHT22;721;48.168;12.818;2023-05-28T08:12:08;20.10;1.00
1455;DHT22;721;48.168;12.818;2023-05-28T08:14:36;20.20;1.00
1455;DHT22;721;48.168;12.818;2023-05-28T08:17:04;20.20;1.00
1455;DHT22;721;48.168;12.818;2023-05-28T08:19:31;20.40;1.00
1455;DHT22;721;48.168;12.818;2023-05-28T08:21:57;20.50;1.00
1455;DHT22;721;48.168;12.818;2023-05-28T08:24:24;20.40;1.00
1455;DHT22;721;48.168;12.818;2023-05-28T08:26:51;20.60;1.00
1455;DHT22;721;48.168;12.818;2023-05-28T08:29:18;20.60;1.00
1455;DHT22;721;48.168;12.818;2023-05-28T08:31:44;20.60;1.00
1455;DHT22;721;48.168;12.818;2023-05-28T08:34:13;20.80;1.00
1455;DHT22;721;48.168;12.818;2023-05-28T08:36:40;20.70;1.00
1455;DHT22;721;48.168;12.818;2023-05-28T08:39:06;20.70;1.00
1455;DHT22;721;48.168;12.818;2023-05-28T08:41:34;20.90;1.00
1455;DHT22;721;48.168;12.818;2023-05-28T08:44:01;21.00;1.00
1455;DHT22;721;48.168;12.818;2023-05-28T08:46:30;21.00;1.00
1455;DHT22;721;48.168;12.818;2023-05-28T08:48:57;20.90;1.00
1455;DHT22;721;48.168;12.818;2023-05-28T08:51:27;20.90;1.00
1455;DHT22;721;48.168;12.818;2023-05-28T08:53:59;21.00;1.00
1455;DHT22;721;48.168;12.818;2023-05-28T08:56:26;20.80;1.00
1455;DHT22;721;48.168;12.818;2023-05-28T08:58:53;20.90;1.00
1455;DHT22;721;48.168;12.818;2023-05-28T09:01:20;21.00;1.00
1455;DHT22;721;48.168;12.818;2023-05-28T09:03:47;20.90;1.00
1455;DHT22;721;48.168;12.818;2023-05-28T09:06:15;21.00;1.00
1455;DHT22;721;48.168;12.818;2023-05-28T09:08:45;21.10;1.00
1455;DHT22;721;48.168;12.818;2023-05-28T09:11:12;21.00;1.00
1455;DHT22;721;48.168;12.818;2023-05-28T09:13:42;21.00;1.00
1455;DHT22;721;48.168;12.818;2023-05-28T09:16:09;21.10;1.00
1455;DHT22;721;48.168;12.818;2023-05-28T09:18:36;21.20;1.00
1455;DHT22;721;48.168;12.818;2023-05-28T09:21:07;21.20;1.00
1455;DHT22;721;48.168;12.818;2023-05-28T09:23:34;21.30;1.00
1455;DHT22;721;48.168;12.818;2023-05-28T09:26:02;21.20;1.00
1455;DHT22;721;48.168;12.818;2023-05-28T09:28:29;21.20;1.00
1455;DHT22;721;48.168;12.818;2023-05-28T09:31:02;21.30;1.00
1455;DHT22;721;48.168;12.818;2023-05-28T09:33:30;21.30;1.00
1455;DHT22;721;48.168;12.818;2023-05-28T09:36:00;21.60;1.00
1455;DHT22;721;48.168;12.818;2023-05-28T09:38:37;21.70;1.00
1455;DHT22;721;48.168;12.818;2023-05-28T09:41:17;21.50;1.00
1455;DHT22;721;48.168;12.818;2023-05-28T09:43:44;21.50;1.00
1455;DHT22;721;48.168;12.818;2023-05-28T09:46:11;21.50;1.00
1455;DHT22;721;48.168;12.818;2023-05-28T09:48:38;21.60;1.00
1455;DHT22;721;48.168;12.818;2023-05-28T09:51:05;21.40;1.00
1455;DHT22;721;48.168;12.818;2023-05-28T09:53:35;21.70;1.00
1455;DHT22;721;48.168;12.818;2023-05-28T09:56:07;21.60;1.00
1455;DHT22;721;48.168;12.818;2023-05-28T09:58:36;21.60;1.00
1455;DHT22;721;48.168;12.818;2023-05-28T10:01:08;21.70;1.00
1455;DHT22;721;48.168;12.818;2023-05-28T10:03:40;21.80;1.00
1455;DHT22;721;48.168;12.818;2023-05-28T10:06:10;21.80;1.00
1455;DHT22;721;48.168;12.818;2023-05-28T10:08:38;21.80;1.00
1455;DHT22;721;48.168;12.818;2023-05-28T10:11:09;21.90;1.00
1455;DHT22;721;48.168;12.818;2023-05-28T10:13:39;22.00;1.00
1455;DHT22;721;48.168;12.818;2023-05-28T10:16:07;21.90;1.00
1455;DHT22;721;48.168;12.818;2023-05-28T10:18:34;22.00;1.00
1455;DHT22;721;48.168;12.818;2023-05-28T10:21:02;22.10;1.00
1455;DHT22;721;48.168;12.818;2023-05-28T10:23:30;22.20;1.00
1455;DHT22;721;48.168;12.818;2023-05-28T10:25:58;22.20;1.00
1455;DHT22;721;48.168;12.818;2023-05-28T10:28:29;22.30;1.00
1455;DHT22;721;48.168;12.818;2023-05-28T10:31:01;22.60;1.00
1455;DHT22;721;48.168;12.818;2023-05-28T10:33:29;22.70;1.00
1455;DHT22;721;48.168;12.818;2023-05-28T10:35:57;22.90;1.00
1455;DHT22;721;48.168;12.818;2023-05-28T10:38:26;22.80;1.00
1455;DHT22;721;48.168;12.818;2023-05-28T10:40:59;22.80;1.00
1455;DHT22;721;48.168;12.818;2023-05-28T10:43:44;22.70;1.00
1455;DHT22;721;48.168;12.818;2023-05-28T10:46:14;22.50;1.00
1455;DHT22;721;48.168;12.818;2023-05-28T10:51:47;22.70;1.00
1455;DHT22;721;48.168;12.818;2023-05-28T10:54:21;22.70;1.00
1455;DHT22;721;48.168;12.818;2023-05-28T10:57:11;22.60;1.00
1455;DHT22;721;48.168;12.818;2023-05-28T10:59:44;22.60;1.00
1455;DHT22;721;48.168;12.818;2023-05-28T11:02:11;22.70;1.00
1455;DHT22;721;48.168;12.818;2023-05-28T11:04:38;22.80;1.00
1455;DHT22;721;48.168;12.818;2023-05-28T11:07:06;23.00;1.00
1455;DHT22;721;48.168;12.818;2023-05-28T11:09:33;22.90;1.00
1455;DHT22;721;48.168;12.818;2023-05-28T11:12:01;22.90;1.00
1455;DHT22;721;48.168;12.818;2023-05-28T11:14:32;23.00;1.00
1455;DHT22;721;48.168;12.818;2023-05-28T11:17:01;23.00;1.00
1455;DHT22;721;48.168;12.818;2023-05-28T11:19:28;23.10;1.00
1455;DHT22;721;48.168;12.818;2023-05-28T11:21:54;23.10;1.00
1455;DHT22;721;48.168;12.818;2023-05-28T11:24:22;23.10;1.00
1455;DHT22;721;48.168;12.818;2023-05-28T11:26:51;23.00;1.00
1455;DHT22;721;48.168;12.818;2023-05-28T11:29:18;23.20;1.00
1455;DHT22;721;48.168;12.818;2023-05-28T11:31:45;23.00;1.00
1455;DHT22;721;48.168;12.818;2023-05-28T11:34:13;23.10;1.00
1455;DHT22;721;48.168;12.818;2023-05-28T11:36:41;23.40;1.00
1455;DHT22;721;48.168;12.818;2023-05-28T11:39:09;23.40;1.00
1455;DHT22;721;48.168;12.818;2023-05-28T11:41:35;23.60;1.00
1455;DHT22;721;48.168;12.818;2023-05-28T11:44:02;23.40;1.00
1455;DHT22;721;48.168;12.818;2023-05-28T11:46:30;23.60;1.00
1455;DHT22;721;48.168;12.818;2023-05-28T11:48:57;23.60;1.00
1455;DHT22;721;48.168;12.818;2023-05-28T11:51:25;23.70;1.00
1455;DHT22;721;48.168;12.818;2023-05-28T11:54:08;23.70;1.00
1455;DHT22;721;48.168;12.818;2023-05-28T11:56:34;23.70;1.00
1455;DHT22;721;48.168;12.818;2023-05-28T11:59:02;23.90;1.00
1455;DHT22;721;48.168;12.818;2023-05-28T12:01:31;24.00;1.00
1455;DHT22;721;48.168;12.818;2023-05-28T12:04:04;24.20;1.00
1455;DHT22;721;48.168;12.818;2023-05-28T12:06:33;24.10;1.00
1455;DHT22;721;48.168;12.818;2023-05-28T12:09:05;24.30;1.00
1455;DHT22;721;48.168;12.818;2023-05-28T12:11:33;24.30;1.00
1455;DHT22;721;48.168;12.818;2023-05-28T12:14:08;24.30;1.00
1455;DHT22;721;48.168;12.818;2023-05-28T12:16:42;24.30;1.00
1455;DHT22;721;48.168;12.818;2023-05-28T12:19:12;24.30;1.00
1455;DHT22;721;48.168;12.818;2023-05-28T12:21:41;24.50;1.00
1455;DHT22;721;48.168;12.818;2023-05-28T12:24:12;24.50;1.00
1455;DHT22;721;48.168;12.818;2023-05-28T12:26:40;24.50;1.00
1455;DHT22;721;48.168;12.818;2023-05-28T12:29:07;24.40;1.00
1455;DHT22;721;48.168;12.818;2023-05-28T12:31:34;24.50;1.00
1455;DHT22;721;48.168;12.818;2023-05-28T12:34:01;24.80;1.00
1455;DHT22;721;48.168;12.818;2023-05-28T12:36:28;24.80;1.00
1455;DHT22;721;48.168;12.818;2023-05-28T12:38:56;24.90;1.00
1455;DHT22;721;48.168;12.818;2023-05-28T12:41:23;24.90;1.00
1455;DHT22;721;48.168;12.818;2023-05-28T12:43:50;24.90;1.00
1455;DHT22;721;48.168;12.818;2023-05-28T12:46:17;24.90;1.00
1455;DHT22;721;48.168;12.818;2023-05-28T12:48:44;25.00;1.00
1455;DHT22;721;48.168;12.818;2023-05-28T12:51:11;25.00;1.00
1455;DHT22;721;48.168;12.818;2023-05-28T12:53:37;25.00;1.00
1455;DHT22;721;48.168;12.818;2023-05-28T12:56:06;25.00;1.00
1455;DHT22;721;48.168;12.818;2023-05-28T12:58:32;25.00;1.00
1455;DHT22;721;48.168;12.818;2023-05-28T13:00:59;25.20;1.00
1455;DHT22;721;48.168;12.818;2023-05-28T13:03:26;25.20;1.00
1455;DHT22;721;48.168;12.818;2023-05-28T13:05:52;25.10;1.00
1455;DHT22;721;48.168;12.818;2023-05-28T13:08:19;25.20;1.00
1455;DHT22;721;48.168;12.818;2023-05-28T13:10:47;25.20;1.00
1455;DHT22;721;48.168;12.818;2023-05-28T13:13:15;25.30;1.00
1455;DHT22;721;48.168;12.818;2023-05-28T13:15:42;25.30;1.00
1455;DHT22;721;48.168;12.818;2023-05-28T13:18:10;25.30;1.00
1455;DHT22;721;48.168;12.818;2023-05-28T13:20:37;25.60;1.00
1455;DHT22;721;48.168;12.818;2023-05-28T13:23:04;25.50;1.00
1455;DHT22;721;48.168;12.818;2023-05-28T13:25:30;25.70;1.00
1455;DHT22;721;48.168;12.818;2023-05-28T13:27:57;25.80;1.00
1455;DHT22;721;48.168;12.818;2023-05-28T13:30:25;25.90;1.00
1455;DHT22;721;48.168;12.818;2023-05-28T13:32:52;25.90;1.00
1455;DHT22;721;48.168;12.818;2023-05-28T13:35:19;25.90;1.00
1455;DHT22;721;48.168;12.818;2023-05-28T13:37:46;26.00;1.00
1455;DHT22;721;48.168;12.818;2023-05-28T13:40:13;25.80;1.00
1455;DHT22;721;48.168;12.818;2023-05-28T13:42:40;26.00;1.00
1455;DHT22;721;48.168;12.818;2023-05-28T13:45:08;25.80;1.00
1455;DHT22;721;48.168;12.818;2023-05-28T13:47:37;26.20;1.00
1455;DHT22;721;48.168;12.818;2023-05-28T13:50:04;26.20;1.00
1455;DHT22;721;48.168;12.818;2023-05-28T13:52:31;26.60;1.00
1455;DHT22;721;48.168;12.818;2023-05-28T13:54:58;26.90;1.00
1455;DHT22;721;48.168;12.818;2023-05-28T13:57:25;27.20;1.00
1455;DHT22;721;48.168;12.818;2023-05-28T13:59:52;27.40;1.00
1455;DHT22;721;48.168;12.818;2023-05-28T14:02:18;27.30;1.00
1455;DHT22;721;48.168;12.818;2023-05-28T14:04:47;27.40;1.00
1455;DHT22;721;48.168;12.818;2023-05-28T14:07:13;27.20;1.00
1455;DHT22;721;48.168;12.818;2023-05-28T14:09:40;27.10;1.00
1455;DHT22;721;48.168;12.818;2023-05-28T14:12:07;27.30;1.00
1455;DHT22;721;48.168;12.818;2023-05-28T14:14:34;27.40;1.00
1455;DHT22;721;48.168;12.818;2023-05-28T14:17:01;27.80;1.00
1455;DHT22;721;48.168;12.818;2023-05-28T14:19:28;28.10;1.00
1455;DHT22;721;48.168;12.818;2023-05-28T14:21:56;28.00;1.00
1455;DHT22;721;48.168;12.818;2023-05-28T14:24:23;28.00;1.00
1455;DHT22;721;48.168;12.818;2023-05-28T14:26:49;27.80;1.00
1455;DHT22;721;48.168;12.818;2023-05-28T14:29:16;27.80;1.00
1455;DHT22;721;48.168;12.818;2023-05-28T14:31:43;27.70;1.00
1455;DHT22;721;48.168;12.818;2023-05-28T14:34:10;27.80;1.00
1455;DHT22;721;48.168;12.818;2023-05-28T14:36:37;27.80;1.00
1455;DHT22;721;48.168;12.818;2023-05-28T14:39:05;27.70;1.00
1455;DHT22;721;48.168;12.818;2023-05-28T14:41:32;27.60;1.00
1455;DHT22;721;48.168;12.818;2023-05-28T14:43:59;27.90;1.00
1455;DHT22;721;48.168;12.818;2023-05-28T14:46:26;28.00;1.00
1455;DHT22;721;48.168;12.818;2023-05-28T14:48:52;28.20;1.00
1455;DHT22;721;48.168;12.818;2023-05-28T14:51:19;28.20;1.00
1455;DHT22;721;48.168;12.818;2023-05-28T14:53:46;28.40;1.00
1455;DHT22;721;48.168;12.818;2023-05-28T14:56:14;28.30;1.00
1455;DHT22;721;48.168;12.818;2023-05-28T14:58:41;28.30;1.00
1455;DHT22;721;48.168;12.818;2023-05-28T15:01:07;28.40;1.00
1455;DHT22;721;48.168;12.818;2023-05-28T15:03:34;28.40;1.00
1455;DHT22;721;48.168;12.818;2023-05-28T15:06:01;28.30;1.00
1455;DHT22;721;48.168;12.818;2023-05-28T15:08:28;28.40;1.00
1455;DHT22;721;48.168;12.818;2023-05-28T15:10:55;28.70;1.00
1455;DHT22;721;48.168;12.818;2023-05-28T15:13:24;28.80;1.00
1455;DHT22;721;48.168;12.818;2023-05-28T15:15:50;28.70;1.00
1455;DHT22;721;48.168;12.818;2023-05-28T15:18:17;28.90;1.00
1455;DHT22;721;48.168;12.818;2023-05-28T15:20:44;28.80;1.00
1455;DHT22;721;48.168;12.818;2023-05-28T15:23:11;29.00;1.00
1455;DHT22;721;48.168;12.818;2023-05-28T15:25:38;29.00;1.00
1455;DHT22;721;48.168;12.818;2023-05-28T15:28:05;29.20;1.00
1455;DHT22;721;48.168;12.818;2023-05-28T15:30:35;29.30;1.00
1455;DHT22;721;48.168;12.818;2023-05-28T15:33:02;29.30;1.00
1455;DHT22;721;48.168;12.818;2023-05-28T15:35:30;29.30;1.00
1455;DHT22;721;48.168;12.818;2023-05-28T15:37:57;29.50;1.00
1455;DHT22;721;48.168;12.818;2023-05-28T15:40:25;29.40;1.00
1455;DHT22;721;48.168;12.818;2023-05-28T15:42:54;29.50;1.00
1455;DHT22;721;48.168;12.818;2023-05-28T15:45:23;29.40;1.00
1455;DHT22;721;48.168;12.818;2023-05-28T15:47:51;29.40;1.00
1455;DHT22;721;48.168;12.818;2023-05-28T15:50:18;29.50;1.00
1455;DHT22;721;48.168;12.818;2023-05-28T15:52:44;29.60;1.00
1455;DHT22;721;48.168;12.818;2023-05-28T15:55:12;29.60;1.00
1455;DHT22;721;48.168;12.818;2023-05-28T15:57:39;29.50;1.00
1455;DHT22;721;48.168;12.818;2023-05-28T16:00:06;29.50;1.00
1455;DHT22;721;48.168;12.818;2023-05-28T16:02:37;29.50;1.00
1455;DHT22;721;48.168;12.818;2023-05-28T16:05:07;29.20;1.00
1455;DHT22;721;48.168;12.818;2023-05-28T16:07:34;28.60;1.00
1455;DHT22;721;48.168;12.818;2023-05-28T16:10:01;28.50;1.00
1455;DHT22;721;48.168;12.818;2023-05-28T16:12:28;28.60;1.00
1455;DHT22;721;48.168;12.818;2023-05-28T16:14:55;28.60;1.00
1455;DHT22;721;48.168;12.818;2023-05-28T16:17:25;28.40;1.00
1455;DHT22;721;48.168;12.818;2023-05-28T16:19:53;28.20;1.00
1455;DHT22;721;48.168;12.818;2023-05-28T16:22:22;28.30;1.00